Data for 04/29/2006

Time Sea-Level Adjusted Pressure Absolute Pressure Temperature Relative Humidity Dew Point   
(mb) (inHg) (mb) (inHg) (C) (F) (%) (C) (F)
00:05 1021 30.15 850 25.1 7.5 45.4 44 -4 24.8
00:10 1021 30.15 850 25.1 7.5 45.6 44 -3.8 25.2
00:15 1021 30.15 850 25.1 7.6 45.7 44 -3.9 24.9
00:20 1021 30.15 850 25.1 7.6 45.6 45 -3.6 25.5
00:25 1021 30.15 850 25.1 7.7 45.8 44 -3.7 25.3
00:30 1021 30.15 850 25.1 7.6 45.7 44 -4 24.9
00:35 1021 30.15 850 25.1 7.7 45.9 43 -4 24.8
00:40 1021 30.15 850 25.1 7.8 46.1 44 -3.7 25.3
00:45 1021 30.15 850 25.1 7.7 45.9 45 -3.6 25.6
00:50 1021 30.15 850 25.1 7.6 45.7 45 -3.4 25.8
00:55 1021 30.15 850 25.1 7.4 45.2 46 -3.4 25.9
01:00 1021 30.15 850 25.1 7.2 45 46 -3.6 25.5
01:05 1021 30.15 850 25.1 7.3 45.2 46 -3.4 25.8
01:10 1021 30.15 850 25.1 7.2 44.9 47 -3.3 26.1
01:15 1021 30.15 850 25.1 7.1 44.8 47 -3.3 26
01:20 1021 30.15 850 25.1 7 44.6 47 -3.5 25.8
01:25 1021 30.15 850 25.1 7.2 45 46 -3.5 25.7
01:30 1021 30.15 850 25.1 7.3 45.1 46 -3.4 25.8
01:35 1021 30.15 850 25.1 7.5 45.6 44 -3.8 25.2
01:40 1021 30.15 850 25.1 7.8 46 45 -3.5 25.6
01:45 1021 30.15 850 25.1 7.4 45.4 46 -3.6 25.6
01:50 1021 30.15 850 25.1 7.4 45.4 46 -3.5 25.7
01:55 1021 30.15 850 25.1 7.3 45.1 47 -3.4 25.9
02:00 1021 30.15 850 25.1 7.1 44.7 47 -3.5 25.7
02:05 1021 30.15 850 25.1 7.3 45.1 46 -3.7 25.4
02:10 1021 30.15 850 25.1 7.3 45.1 47 -3.4 26
02:15 1021 30.15 850 25.1 7 44.6 48 -3.3 26.1
02:20 1021 30.15 850 25.1 6.9 44.4 48 -3.4 25.9
02:25 1021 30.15 850 25.1 7 44.5 48 -3.3 26.1
02:30 1021 30.15 850 25.1 6.9 44.5 48 -3.3 26.1
02:35 1021 30.15 850 25.1 6.9 44.4 48 -3.3 26.1
02:40 1021 30.15 850 25.1 6.7 44.1 49 -3.3 26
02:45 1021 30.15 850 25.1 6.7 44 49 -3.2 26.2
02:50 1021 30.15 850 25.1 6.6 44 49 -3.3 26.1
02:55 1021 30.15 850 25.1 6.5 43.7 50 -3.3 26.1
03:00 1021 30.15 850 25.1 6.4 43.5 50 -3.3 26.1
03:05 1020 30.12 850 25.1 6.4 43.6 49 -3.4 25.8
03:10 1020 30.12 850 25.1 6.6 43.8 49 -3.4 26
03:15 1020 30.12 850 25.1 6.3 43.4 50 -3.2 26.2
03:20 1020 30.12 850 25.1 6.1 43 51 -3.2 26.2
03:25 1020 30.12 850 25.1 5.9 42.7 52 -3.2 26.3
03:30 1020 30.12 850 25.1 6 42.8 51 -3.2 26.2
03:35 1020 30.12 850 25.1 6.1 43 51 -3.3 26
03:40 1020 30.12 850 25.1 6.1 42.9 51 -3.3 26.1
03:45 1020 30.12 850 25.1 6 42.8 52 -3.2 26.2
03:50 1020 30.12 850 25.1 5.9 42.6 51 -3.4 25.8
03:55 1020 30.12 850 25.1 6 42.7 52 -3.2 26.3
04:00 1020 30.12 850 25.1 5.9 42.6 52 -3.3 26
04:05 1020 30.12 850 25.1 5.9 42.6 51 -3.4 25.9
04:10 1020 30.12 850 25.1 5.9 42.7 51 -3.4 25.9
04:15 1021 30.15 850 25.1 6 42.8 51 -3.5 25.7
04:20 1020 30.12 850 25.1 6 42.7 51 -3.3 26
04:25 1020 30.12 850 25.1 5.8 42.4 53 -3.1 26.5
04:30 1020 30.12 850 25.1 5.5 41.9 53 -3.3 26.1
04:35 1020 30.12 850 25.1 5.4 41.7 53 -3.5 25.8
04:40 1020 30.12 850 25.1 5.5 41.9 53 -3.4 25.9
04:45 1020 30.12 850 25.1 5.7 42.2 52 -3.3 26
04:50 1020 30.12 850 25.1 5.6 42.1 53 -3.3 26
04:55 1020 30.12 850 25.1 5.5 42 53 -3.4 25.9
05:00 1020 30.12 850 25.1 5.6 42.1 52 -3.5 25.8
05:05 1020 30.12 850 25.1 5.7 42.2 52 -3.4 25.9
05:10 1020 30.12 850 25.1 5.6 42.1 53 -3.2 26.2
05:15 1020 30.12 850 25.1 5.5 41.8 53 -3.3 26
05:20 1020 30.12 850 25.1 5.3 41.6 54 -3.1 26.4
05:25 1020 30.12 850 25.1 5.1 41.2 55 -3.1 26.4
05:30 1020 30.12 850 25.1 5.2 41.3 55 -3 26.6
05:35 1020 30.12 850 25.1 5.1 41.2 55 -3.2 26.3
05:40 1020 30.12 850 25.1 5.1 41.2 55 -3.2 26.3
05:45 1020 30.12 850 25.1 5 41 55 -3.2 26.2
05:50 1020 30.12 850 25.1 5.1 41.2 55 -3.2 26.2
05:55 1020 30.12 850 25.1 5.1 41.2 55 -3.2 26.2
06:00 1020 30.12 849 25.07 5.2 41.4 55 -3.1 26.4
06:05 1020 30.12 849 25.07 5.1 41.2 56 -3 26.5
06:10 1020 30.12 849 25.07 5 41 56 -3 26.6
06:15 1020 30.12 849 25.07 5 41.1 56 -3.1 26.4
06:20 1020 30.12 849 25.07 5.3 41.5 55 -3.1 26.5
06:25 1020 30.12 849 25.07 5.5 41.9 54 -3.1 26.4
06:30 1020 30.12 850 25.1 5.6 42 55 -2.7 27.1
06:35 1020 30.12 850 25.1 5.5 42 56 -2.6 27.4
06:40 1020 30.12 850 25.1 5.7 42.2 54 -2.8 27
06:45 1020 30.12 850 25.1 5.5 41.9 55 -2.9 26.9
06:50 1020 30.12 850 25.1 5.5 41.9 55 -2.8 26.9
06:55 1020 30.12 850 25.1 5.6 42 55 -2.9 26.8
07:00 1020 30.12 850 25.1 5.6 42.1 55 -2.7 27.2
07:05 1020 30.12 850 25.1 5.6 42.2 55 -2.7 27.1
07:10 1020 30.12 850 25.1 5.7 42.3 55 -2.6 27.4
07:15 1020 30.12 850 25.1 5.8 42.5 55 -2.6 27.3
07:20 1020 30.12 850 25.1 6.2 43.2 53 -2.6 27.4
07:25 1020 30.12 850 25.1 6.5 43.6 53 -2.3 27.8
07:30 1020 30.12 850 25.1 6.5 43.8 55 -1.9 28.5
07:35 1020 30.12 850 25.1 6.7 44 54 -2 28.4
07:40 1020 30.12 850 25.1 7.2 45 52 -2.1 28.3
07:45 1020 30.12 850 25.1 7.7 45.8 50 -2.2 28.1
07:50 1020 30.12 850 25.1 8.1 46.6 49 -2 28.5
07:55 1020 30.12 850 25.1 8.1 46.5 50 -1.6 29.1
08:00 1020 30.12 850 25.1 8.1 46.6 49 -1.9 28.6
08:05 1021 30.15 850 25.1 8.5 47.4 47 -2.2 28
08:10 1021 30.15 850 25.1 8.8 47.9 46 -2.2 28.1
08:15 1021 30.15 850 25.1 9.4 49 43 -2.3 27.8
08:20 1021 30.15 850 25.1 9.8 49.6 44 -2 28.5
08:25 1021 30.15 850 25.1 10.1 50.2 42 -2.1 28.2
08:30 1021 30.15 850 25.1 10.9 51.7 40 -2.2 28.1
08:35 1021 30.15 850 25.1 11.5 52.6 37 -2.6 27.3
08:40 1021 30.15 850 25.1 11.7 53.1 37 -2.6 27.4
08:45 1021 30.15 850 25.1 12.3 54.1 36 -2.4 27.7
08:50 1021 30.15 850 25.1 12.5 54.6 35 -2.3 27.8
08:55 1021 30.15 850 25.1 12.5 54.4 36 -2.2 28.1
09:00 1021 30.15 850 25.1 12.9 55.2 36 -1.8 28.8
09:05 1021 30.15 850 25.1 12.1 53.7 40 -1.2 29.9
09:10 1021 30.15 850 25.1 12.6 54.7 37 -1.5 29.4
09:15 1021 30.15 850 25.1 13.5 56.2 36 -1.3 29.6
09:20 1020 30.12 850 25.1 13.4 56.1 37 -1 30.1
09:25 1020 30.12 850 25.1 13.5 56.2 36 -1.4 29.6
09:30 1020 30.12 850 25.1 14.1 57.3 34 -1.3 29.6
09:35 1020 30.12 850 25.1 14.5 58 34 -1.1 30.1
09:40 1020 30.12 850 25.1 15.1 59.1 33 -1.1 30
09:45 1020 30.12 849 25.07 15.6 60.1 31 -1.1 29.9
09:50 1020 30.12 849 25.07 15.3 59.5 32 -1.3 29.7
09:55 1020 30.12 849 25.07 15.7 60.2 32 -0.9 30.4
10:00 1020 30.12 849 25.07 15.9 60.7 31 -1.1 30.1
10:05 1020 30.12 849 25.07 15.7 60.3 32 -0.7 30.8
10:10 1020 30.12 849 25.07 15.7 60.2 32 -0.9 30.5
10:15 1020 30.12 849 25.07 15.2 59.4 32 -1.2 29.9
10:20 1020 30.12 849 25.07 16 60.9 31 -1 30.3
10:25 1020 30.12 849 25.07 16.4 61.4 31 -0.9 30.4
10:30 1020 30.12 849 25.07 16.5 61.7 31 -0.8 30.6
10:35 1020 30.12 849 25.07 17.1 62.7 29 -0.8 30.6
10:40 1020 30.12 849 25.07 17 62.6 30 -0.5 31.1
10:45 1020 30.12 849 25.07 16.5 61.8 32 0.1 32.1
10:50 1020 30.12 849 25.07 16.7 62.1 31 -0.2 31.6
10:55 1020 30.12 849 25.07 16.9 62.5 31 -0.2 31.6
11:00 1020 30.12 849 25.07 17.5 63.4 31 0.1 32.2
11:05 1020 30.12 849 25.07 17.7 63.9 30 0.1 32.3
11:10 1020 30.12 849 25.07 17.8 64 31 0.4 32.7
11:15 1020 30.12 849 25.07 18.1 64.6 29 0 32.1
11:20 1020 30.12 849 25.07 18.7 65.7 30 0.7 33.3
11:25 1020 30.12 849 25.07 18.9 65.9 29 0.8 33.5
11:30 1020 30.12 849 25.07 18.3 65 30 0.7 33.3
11:35 1020 30.12 849 25.07 17.7 63.9 33 1.4 34.5
11:40 1020 30.12 849 25.07 18.1 64.6 32 1.1 34
11:45 1020 30.12 849 25.07 18 64.4 32 1.4 34.5
11:50 1020 30.12 849 25.07 18.1 64.6 32 1.2 34.1
11:55 1019 30.09 849 25.07 18.3 65 32 1.4 34.5
12:00 1019 30.09 849 25.07 18.1 64.6 32 1.2 34.2
12:05 1019 30.09 849 25.07 18 64.4 31 0.9 33.6
12:10 1019 30.09 849 25.07 18.5 65.3 31 1.1 34.1
12:15 1019 30.09 848 25.04 18.5 65.3 32 1.7 35
12:20 1019 30.09 848 25.04 18.1 64.6 32 1.1 34
12:25 1019 30.09 848 25.04 18.2 64.8 31 1.1 33.9
12:30 1019 30.09 848 25.04 17.8 64.1 31 0.8 33.4
12:35 1019 30.09 848 25.04 18.3 64.9 32 1.4 34.4
12:40 1019 30.09 848 25.04 19.3 66.7 30 1.3 34.4
12:45 1019 30.09 848 25.04 19.7 67.4 30 1.9 35.4
12:50 1019 30.09 848 25.04 19.3 66.7 30 1.3 34.4
12:55 1019 30.09 848 25.04 19.6 67.3 29 1.3 34.3
13:00 1019 30.09 848 25.04 19.3 66.8 29 1 33.8
13:05 1019 30.09 848 25.04 19.5 67 31 1.8 35.3
13:10 1019 30.09 848 25.04 19.4 67 29 0.9 33.6
13:15 1019 30.09 848 25.04 19.9 67.7 29 1.2 34.2
13:20 1018 30.06 848 25.04 19.7 67.5 28 1 33.7
13:25 1018 30.06 848 25.04 19.7 67.4 28 0.6 33
13:30 1018 30.06 848 25.04 19.8 67.6 28 1.1 33.9
13:35 1018 30.06 847 25.01 19.5 67.1 28 0.5 32.9
13:40 1018 30.06 847 25.01 19.5 67.2 27 0.4 32.7
13:45 1018 30.06 847 25.01 20.1 68.1 27 0.8 33.4
13:50 1018 30.06 847 25.01 20.4 68.7 26 0.6 33
13:55 1018 30.06 847 25.01 20.6 69 26 0.6 33.1
14:00 1018 30.06 847 25.01 20.4 68.7 26 0.5 32.9
14:05 1018 30.06 847 25.01 19.8 67.6 27 0.4 32.6
14:10 1018 30.06 847 25.01 20.7 69.3 25 0.3 32.6
14:15 1018 30.06 847 25.01 20.7 69.3 26 0.9 33.7
14:20 1018 30.06 847 25.01 20.8 69.4 26 0.8 33.4
14:25 1018 30.06 847 25.01 21 69.8 25 0.6 33.2
14:30 1018 30.06 847 25.01 21 69.8 25 0.3 32.6
14:35 1018 30.06 847 25.01 21 69.7 26 1 33.8
14:40 1018 30.06 847 25.01 20.7 69.2 24 -0.2 31.6
14:45 1018 30.06 847 25.01 21 69.9 24 0 32.1
14:50 1018 30.06 847 25.01 20 68 26 0.1 32.2
14:55 1017 30.03 847 25.01 20.1 68.2 26 0.3 32.6
15:00 1017 30.03 847 25.01 20.2 68.3 26 0.4 32.8
15:05 1017 30.03 847 25.01 20 68.1 26 -0 31.9
15:10 1017 30.03 847 25.01 19.8 67.6 26 -0 32
15:15 1017 30.03 846 24.98 20.4 68.6 26 0.3 32.6
15:20 1017 30.03 846 24.98 20.3 68.6 25 -0.3 31.5
15:25 1017 30.03 846 24.98 20.7 69.3 24 -0.7 30.8
15:30 1017 30.03 846 24.98 20.5 68.8 24 -0.6 31
15:35 1017 30.03 846 24.98 20.7 69.3 25 -0.1 31.8
15:40 1017 30.03 846 24.98 21.4 70.4 23 -0.4 31.3
15:45 1017 30.03 846 24.98 21.5 70.6 22 -0.8 30.6
15:50 1017 30.03 846 24.98 21.2 70.2 24 -0.2 31.7
15:55 1017 30.03 846 24.98 20.8 69.4 23 -0.8 30.5
16:00 1017 30.03 846 24.98 20.1 68.2 25 -0.6 30.9
16:05 1017 30.03 846 24.98 20.8 69.4 22 -1.4 29.6
16:10 1017 30.03 846 24.98 21.9 71.4 21 -1.1 30.1
16:15 1017 30.03 846 24.98 22.2 72 21 -0.8 30.6
16:20 1017 30.03 846 24.98 22.1 71.8 21 -1.2 29.8
16:25 1017 30.03 846 24.98 22.1 71.7 21 -1.3 29.7
16:30 1017 30.03 846 24.98 21.9 71.4 20 -1.6 29.2
16:35 1017 30.03 846 24.98 21.4 70.6 21 -1.6 29.1
16:40 1017 30.03 846 24.98 21.4 70.5 20 -2 28.3
16:45 1016 30 846 24.98 21.8 71.3 20 -1.7 29
16:50 1016 30 846 24.98 21.7 71 21 -1.3 29.7
16:55 1016 30 846 24.98 22 71.5 20 -1.8 28.7
17:00 1016 30 846 24.98 22.2 72 21 -1.2 29.8
17:05 1016 30 845 24.95 22 71.5 22 -0.8 30.6
17:10 1016 30 845 24.95 21.8 71.3 22 -0.6 30.8
17:15 1016 30 845 24.95 21.7 71.1 23 -0.4 31.4
17:20 1016 30 845 24.95 21.3 70.4 23 -0.5 31.1
17:25 1016 30 845 24.95 20.9 69.7 24 -0.2 31.7
17:30 1016 30 845 24.95 21 69.8 22 -1.1 30.1
17:35 1016 30 845 24.95 21.5 70.7 22 -0.7 30.8
17:40 1016 30 845 24.95 21.6 70.9 22 -0.8 30.5
17:45 1016 30 845 24.95 22 71.6 22 -0.6 31
17:50 1016 30 845 24.95 22.1 71.8 22 -0.7 30.8
17:55 1016 30 845 24.95 22.2 71.9 21 -0.8 30.6
18:00 1016 30 845 24.95 22 71.5 22 -0.5 31.1
18:05 1016 30 845 24.95 21.7 71 23 -0.4 31.3
18:10 1016 30 845 24.95 21.3 70.4 22 -0.8 30.6
18:15 1016 30 845 24.95 21.3 70.3 23 -0.6 30.9
18:20 1015 29.97 845 24.95 21 69.7 24 -0.5 31.1
18:25 1015 29.97 845 24.95 20.7 69.3 23 -0.7 30.7
18:30 1015 29.97 845 24.95 20.6 69.1 24 -0.5 31.1
18:35 1015 29.97 844 24.92 20.3 68.6 24 -0.7 30.8
18:40 1015 29.97 844 24.92 20.6 69.1 24 -0.7 30.7
18:45 1015 29.97 844 24.92 20.6 69 23 -0.8 30.5
18:50 1015 29.97 844 24.92 20.4 68.8 25 -0.3 31.4
18:55 1015 29.97 844 24.92 19.8 67.6 25 -0.6 31
19:00 1015 29.97 844 24.92 19.9 67.7 26 -0.3 31.5
19:05 1015 29.97 844 24.92 20 68.1 25 -0.2 31.6
19:10 1015 29.97 844 24.92 20.1 68.1 26 -0.1 31.8
19:15 1015 29.97 844 24.92 19.8 67.7 26 0 32.1
19:20 1015 29.97 844 24.92 19.7 67.5 26 -0.1 31.9
19:25 1015 29.97 844 24.92 19.7 67.5 26 -0 32
19:30 1015 29.97 844 24.92 19.7 67.5 27 0.1 32.2
19:35 1015 29.97 844 24.92 19.5 67.1 26 -0.3 31.5
19:40 1015 29.97 844 24.92 19.4 66.9 26 -0.5 31.1
19:45 1015 29.97 844 24.92 19.2 66.5 27 -0.3 31.4
19:50 1014 29.94 844 24.92 19.1 66.4 27 -0.1 31.8
19:55 1014 29.94 844 24.92 19 66.3 26 -0.5 31
20:00 1014 29.94 843 24.89 18.9 66.1 26 -0.7 30.8
20:05 1014 29.94 843 24.89 18.9 66 27 -0.3 31.5
20:10 1014 29.94 843 24.89 18.8 65.9 28 -0.2 31.7
20:15 1014 29.94 843 24.89 18.6 65.6 28 0.1 32.2
20:20 1014 29.94 843 24.89 18.3 64.9 29 0.3 32.5
20:25 1014 29.94 843 24.89 18.1 64.5 32 1.4 34.6
20:30 1014 29.94 843 24.89 17.2 62.9 36 2 35.7
20:35 1014 29.94 843 24.89 16.2 61.2 37 1.8 35.2
20:40 1014 29.94 843 24.89 15.5 59.8 39 1.7 35
20:45 1014 29.94 843 24.89 15 59 41 1.9 35.4
20:50 1014 29.94 843 24.89 14.7 58.4 41 1.8 35.3
20:55 1014 29.94 843 24.89 14.4 58 42 1.6 34.9
21:00 1014 29.94 843 24.89 14.3 57.7 42 1.8 35.2
21:05 1014 29.94 843 24.89 14 57.1 45 2.3 36.1
21:10 1014 29.94 843 24.89 13.7 56.7 44 1.7 35
21:15 1014 29.94 843 24.89 13.7 56.7 46 2.3 36.1
21:20 1014 29.94 843 24.89 13.5 56.3 45 1.8 35.2
21:25 1014 29.94 843 24.89 13.6 56.4 45 1.9 35.4
21:30 1014 29.94 843 24.89 13.2 55.7 46 1.8 35.3
21:35 1014 29.94 843 24.89 13 55.4 45 1.5 34.7
21:40 1014 29.94 843 24.89 13.2 55.7 44 1.3 34.4
21:45 1014 29.94 843 24.89 13.1 55.5 45 1.5 34.8
21:50 1014 29.94 843 24.89 12.8 55 46 1.6 34.9
21:55 1014 29.94 843 24.89 12.5 54.4 47 1.6 34.9
22:00 1014 29.94 843 24.89 12.3 54.1 48 1.6 34.8
22:05 1014 29.94 843 24.89 12.2 54 47 1.4 34.5
22:10 1014 29.94 844 24.92 12.2 53.9 47 1.3 34.3
22:15 1014 29.94 844 24.92 12.2 54 47 1.3 34.3
22:20 1014 29.94 844 24.92 12.1 53.9 47 1.3 34.3
22:25 1014 29.94 844 24.92 12.2 53.9 47 1.2 34.1
22:30 1014 29.94 843 24.89 12.2 54 46 1.1 33.9
22:35 1014 29.94 844 24.92 12.5 54.4 45 0.9 33.6
22:40 1014 29.94 844 24.92 12.4 54.3 46 1.1 34.1
22:45 1014 29.94 844 24.92 12.2 54 47 1.3 34.3
22:50 1014 29.94 844 24.92 12.3 54.2 47 1.3 34.4
22:55 1014 29.94 844 24.92 12.1 53.8 48 1.4 34.6
23:00 1014 29.94 843 24.89 12.2 53.9 48 1.6 34.9
23:05 1014 29.94 843 24.89 12.3 54.2 47 1.4 34.6
23:10 1014 29.94 843 24.89 12.6 54.7 47 1.6 34.8
23:15 1014 29.94 843 24.89 12.8 55.1 45 1.4 34.5
23:20 1014 29.94 843 24.89 13.1 55.5 44 1.2 34.1
23:25 1014 29.94 843 24.89 13.3 55.9 43 1.1 34.1
23:30 1014 29.94 843 24.89 13.5 56.2 43 1.1 34
23:35 1014 29.94 843 24.89 13.6 56.5 42 1 33.7
23:40 1014 29.94 843 24.89 13.6 56.5 42 1 33.7
23:45 1014 29.94 843 24.89 13.3 56 43 1 33.8
23:50 1014 29.94 843 24.89 12.9 55.3 44 1.1 34
23:55 1014 29.94 843 24.89 12.8 55 44 1 33.8
24:00 1014 29.94 843 24.89 12.9 55.1 45 1.4 34.5